Time;durP1;ratioP1;P1;durP2;ratioP2;P2;SDS_P1;SDS_P2;PMS_P1;PMS_P2;Temp;Humidity;BMP_temperature;BMP_pressure;BME280_temperature;BME280_humidity;BME280_pressure;Samples;Min_cycle;Max_cycle;Signal;HPM_P1;HPM_P2
2021/06/23 00:04:17;;;;;;;12.83;7.23;;;;;12.40;101479.00;;;;10536420;28;20199;-76
2021/06/23 00:09:19;;;;;;;15.03;6.87;;;;;12.30;101485.00;;;;10503392;28;20330;-75
2021/06/23 00:14:22;;;;;;;12.80;7.13;;;;;12.30;101486.00;;;;10524091;28;20211;-75
2021/06/23 00:19:24;;;;;;;8.83;7.30;;;;;12.30;101491.00;;;;10506440;28;20185;-75
2021/06/23 00:24:27;;;;;;;13.33;6.70;;;;;12.20;101487.00;;;;10490777;28;20197;-75
2021/06/23 00:29:33;;;;;;;12.07;6.87;;;;;12.20;101487.00;;;;10492069;28;20229;-75
2021/06/23 00:34:37;;;;;;;18.10;7.10;;;;;12.20;101491.00;;;;10498959;28;20283;-75
2021/06/23 00:39:39;;;;;;;10.73;6.87;;;;;12.20;101494.00;;;;10498356;28;20201;-76
2021/06/23 00:44:41;;;;;;;12.57;7.20;;;;;12.20;101496.00;;;;10481768;28;20221;-75
2021/06/23 00:49:43;;;;;;;13.97;6.90;;;;;12.20;101489.00;;;;10464445;28;20209;-75
2021/06/23 00:55:20;;;;;;;11.27;6.63;;;;;12.20;101499.00;;;;10509196;28;20208;-75
2021/06/23 01:00:29;;;;;;;14.83;7.33;;;;;12.20;101497.00;;;;10523250;28;20208;-75
2021/06/23 01:05:37;;;;;;;12.53;7.03;;;;;12.20;101490.00;;;;10489279;28;20188;-75
2021/06/23 01:10:44;;;;;;;14.90;7.57;;;;;12.10;101491.00;;;;10522007;28;20232;-75
2021/06/23 01:15:48;;;;;;;14.80;8.27;;;;;12.10;101496.00;;;;10502322;28;20660;-75
2021/06/23 01:20:51;;;;;;;14.80;8.70;;;;;12.00;101499.00;;;;10521873;28;20204;-75
2021/06/23 01:25:54;;;;;;;15.13;8.13;;;;;12.00;101491.00;;;;10471758;28;20599;-76
2021/06/23 01:30:57;;;;;;;14.53;9.13;;;;;12.00;101493.00;;;;10446917;28;20239;-75
2021/06/23 01:36:02;;;;;;;20.17;9.37;;;;;12.00;101487.00;;;;10446130;28;20688;-75
2021/06/23 01:41:05;;;;;;;16.77;9.07;;;;;12.00;101485.00;;;;10446210;28;20762;-76
2021/06/23 01:46:08;;;;;;;20.13;9.87;;;;;11.90;101493.00;;;;10463227;28;20190;-75
2021/06/23 01:51:10;;;;;;;16.33;10.13;;;;;11.90;101502.00;;;;10446086;28;20205;-75
2021/06/23 01:56:16;;;;;;;15.63;10.10;;;;;11.90;101498.00;;;;10479333;28;20194;-75
2021/06/23 02:01:46;;;;;;;15.50;10.97;;;;;11.90;101502.00;;;;10479796;28;20200;-76
2021/06/23 02:07:24;;;;;;;21.20;11.83;;;;;11.90;101498.00;;;;10428511;28;20202;-75
2021/06/23 02:12:57;;;;;;;21.50;11.47;;;;;11.90;101507.00;;;;10462688;28;20193;-75
2021/06/23 02:17:59;;;;;;;18.53;11.80;;;;;11.90;101496.00;;;;10461837;28;20189;-75
2021/06/23 02:23:28;;;;;;;18.57;12.33;;;;;11.90;101500.00;;;;10486064;28;20295;-75
2021/06/23 02:28:32;;;;;;;26.13;13.40;;;;;11.90;101505.00;;;;10504025;28;20276;-75
2021/06/23 02:33:33;;;;;;;18.27;13.30;;;;;11.90;101506.00;;;;10489420;28;20259;-76
2021/06/23 02:38:36;;;;;;;22.80;13.70;;;;;11.90;101512.00;;;;10478455;28;20572;-76
2021/06/23 02:43:39;;;;;;;25.07;14.33;;;;;11.90;101508.00;;;;10483479;28;20652;-76
2021/06/23 02:48:57;;;;;;;19.00;12.60;;;;;11.90;101514.00;;;;10469224;28;20292;-76
2021/06/23 02:54:08;;;;;;;19.53;14.03;;;;;11.90;101512.00;;;;10535504;28;20196;-76
2021/06/23 02:59:28;;;;;;;26.83;15.10;;;;;11.90;101516.00;;;;10552986;28;20184;-76
2021/06/23 03:04:32;;;;;;;26.93;15.03;;;;;11.90;101524.00;;;;10532212;28;20252;-76
2021/06/23 03:09:45;;;;;;;21.33;15.67;;;;;11.80;101525.00;;;;10495681;28;20927;-76
2021/06/23 03:15:19;;;;;;;24.50;15.93;;;;;11.80;101524.00;;;;10545149;28;20211;-76
2021/06/23 03:20:26;;;;;;;20.90;16.73;;;;;11.80;101521.00;;;;10494420;28;20632;-76
2021/06/23 03:25:29;;;;;;;25.50;16.17;;;;;11.80;101531.00;;;;10495159;28;20212;-76
2021/06/23 03:30:32;;;;;;;22.77;16.60;;;;;11.70;101527.00;;;;10509843;28;20236;-76
2021/06/23 03:35:35;;;;;;;27.93;18.00;;;;;11.70;101539.00;;;;10509402;28;20718;-76
2021/06/23 03:40:37;;;;;;;27.57;16.70;;;;;11.70;101550.00;;;;10526018;28;20232;-76
2021/06/23 03:45:40;;;;;;;32.73;18.70;;;;;11.70;101537.00;;;;10509259;28;20193;-76
2021/06/23 03:50:46;;;;;;;27.73;19.17;;;;;11.80;101537.00;;;;10492346;28;20914;-76
2021/06/23 03:55:49;;;;;;;27.27;17.10;;;;;11.80;101546.00;;;;10533919;28;20279;-76
2021/06/23 04:00:53;;;;;;;28.97;19.37;;;;;11.70;101552.00;;;;10519934;28;20195;-76
2021/06/23 04:06:27;;;;;;;26.77;19.40;;;;;11.70;101549.00;;;;10484216;28;20196;-76
2021/06/23 04:11:29;;;;;;;27.57;18.27;;;;;11.70;101548.00;;;;10467584;28;20201;-76
2021/06/23 04:16:33;;;;;;;24.07;19.57;;;;;11.70;101557.00;;;;10450203;28;20703;-76
2021/06/23 04:21:37;;;;;;;26.13;20.13;;;;;11.70;101558.00;;;;10449836;28;20190;-75
2021/06/23 04:26:43;;;;;;;25.00;18.47;;;;;11.70;101567.00;;;;10466198;28;20289;-76
2021/06/23 04:31:48;;;;;;;24.90;18.83;;;;;11.80;101571.00;;;;10466164;28;20304;-76
2021/06/23 04:36:52;;;;;;;29.77;20.83;;;;;11.80;101565.00;;;;10448874;28;20632;-76
2021/06/23 04:41:54;;;;;;;29.07;21.33;;;;;11.90;101565.00;;;;10482225;28;20213;-76
2021/06/23 04:46:57;;;;;;;27.63;21.00;;;;;11.90;101568.00;;;;10465527;28;20193;-75
2021/06/23 04:52:02;;;;;;;30.37;22.43;;;;;12.00;101569.00;;;;10465199;28;20692;-75
2021/06/23 04:57:05;;;;;;;30.37;21.37;;;;;12.00;101567.00;;;;10449779;28;20284;-75
2021/06/23 05:02:08;;;;;;;24.67;21.63;;;;;12.00;101568.00;;;;10465922;28;20293;-75
2021/06/23 05:07:12;;;;;;;31.40;23.00;;;;;12.10;101570.00;;;;10464762;28;20193;-75
2021/06/23 05:12:15;;;;;;;28.80;20.70;;;;;12.10;101574.00;;;;10465169;28;20194;-75
2021/06/23 05:17:17;;;;;;;30.20;22.03;;;;;12.20;101571.00;;;;10487150;28;20623;-75
2021/06/23 05:22:20;;;;;;;30.53;22.17;;;;;12.30;101564.00;;;;10540143;28;20578;-75
2021/06/23 05:27:22;;;;;;;26.13;21.27;;;;;12.30;101569.00;;;;10461148;28;20197;-76
2021/06/23 05:32:23;;;;;;;31.83;22.47;;;;;12.50;101566.00;;;;10463816;28;20268;-75
2021/06/23 05:37:25;;;;;;;31.30;21.43;;;;;12.60;101573.00;;;;10480220;28;20205;-75
2021/06/23 05:42:27;;;;;;;23.33;20.30;;;;;12.60;101582.00;;;;10463910;28;20585;-76
2021/06/23 05:47:29;;;;;;;27.47;22.00;;;;;12.50;101588.00;;;;10430864;28;20194;-76
2021/06/23 05:52:31;;;;;;;37.43;21.50;;;;;12.50;101590.00;;;;10522947;28;20192;-76
2021/06/23 05:57:33;;;;;;;29.07;20.40;;;;;12.50;101586.00;;;;10471852;28;20214;-76
2021/06/23 06:02:35;;;;;;;30.40;20.90;;;;;12.60;101589.00;;;;10462704;28;20198;-76
2021/06/23 06:07:36;;;;;;;28.73;19.87;;;;;12.80;101588.00;;;;10471524;28;20205;-76
2021/06/23 06:12:38;;;;;;;30.43;19.97;;;;;13.00;101588.00;;;;10491594;28;20198;-75
2021/06/23 06:17:40;;;;;;;27.87;20.30;;;;;13.20;101591.00;;;;10465497;28;20232;-76
2021/06/23 06:22:42;;;;;;;25.63;19.70;;;;;13.30;101596.00;;;;10498951;28;20194;-76
2021/06/23 06:27:44;;;;;;;27.63;17.30;;;;;13.30;101602.00;;;;10500351;28;20211;-75
2021/06/23 06:32:46;;;;;;;24.13;16.03;;;;;13.40;101609.00;;;;10494427;28;20225;-75
2021/06/23 06:37:48;;;;;;;28.90;17.47;;;;;13.30;101615.00;;;;10476311;28;20205;-75
2021/06/23 06:42:50;;;;;;;25.80;15.73;;;;;13.20;101620.00;;;;10463882;28;20541;-75
2021/06/23 06:47:52;;;;;;;25.37;15.43;;;;;13.30;101618.00;;;;10469124;28;20205;-75
2021/06/23 06:53:02;;;;;;;24.37;15.77;;;;;13.40;101618.00;;;;10511583;28;20249;-75
2021/06/23 06:58:04;;;;;;;21.90;14.33;;;;;13.60;101624.00;;;;10525223;28;20201;-75
2021/06/23 07:03:06;;;;;;;25.13;15.47;;;;;13.80;101625.00;;;;10489867;28;20246;-75
2021/06/23 07:08:08;;;;;;;23.13;15.03;;;;;13.80;101631.00;;;;10489954;28;20300;-75
2021/06/23 07:13:10;;;;;;;22.30;14.37;;;;;13.90;101640.00;;;;10505221;28;20189;-75
2021/06/23 07:18:12;;;;;;;21.17;13.97;;;;;14.00;101635.00;;;;10485835;28;20194;-75
2021/06/23 07:23:14;;;;;;;17.73;12.77;;;;;13.90;101645.00;;;;10520809;28;20184;-75
2021/06/23 07:28:24;;;;;;;24.00;14.00;;;;;13.90;101636.00;;;;10466730;28;20206;-75
2021/06/23 07:33:26;;;;;;;21.27;14.23;;;;;14.00;101633.00;;;;10481934;28;20228;-75
2021/06/23 07:38:28;;;;;;;22.20;13.83;;;;;14.10;101645.00;;;;10487713;28;20258;-75
2021/06/23 07:43:29;;;;;;;22.97;14.43;;;;;14.20;101648.00;;;;10499910;28;20296;-75
2021/06/23 07:48:36;;;;;;;24.33;14.80;;;;;14.40;101647.00;;;;10513151;28;20196;-75
2021/06/23 08:09:38;;;;;;;20.17;11.57;;;;;15.10;101660.00;;;;10485698;28;20217;-76
2021/06/23 08:14:40;;;;;;;17.30;11.63;;;;;15.00;101672.00;;;;10499321;28;20181;-76
2021/06/23 08:19:42;;;;;;;18.47;10.33;;;;;15.00;101668.00;;;;10489056;28;20262;-76
2021/06/23 08:24:44;;;;;;;17.00;10.17;;;;;15.10;101673.00;;;;10523404;28;20643;-76
2021/06/23 08:29:46;;;;;;;12.47;10.50;;;;;15.50;101677.00;;;;10529643;28;20208;-75
2021/06/23 08:34:48;;;;;;;16.73;9.70;;;;;15.70;101682.00;;;;10507247;28;20212;-76
2021/06/23 08:39:50;;;;;;;22.63;9.80;;;;;15.80;101682.00;;;;10503836;28;20594;-76
2021/06/23 08:44:52;;;;;;;15.47;9.20;;;;;16.10;101688.00;;;;10505255;28;20193;-76
2021/06/23 08:49:54;;;;;;;15.43;8.97;;;;;16.40;101702.00;;;;10521078;28;20553;-76
2021/06/23 08:54:56;;;;;;;14.20;8.68;;;;;16.60;101690.00;;;;10462285;28;20201;-76
2021/06/23 08:59:58;;;;;;;12.77;8.73;;;;;16.70;101690.00;;;;10477123;28;20196;-76
2021/06/23 09:05:02;;;;;;;12.90;8.20;;;;;17.20;101687.00;;;;10481999;28;20189;-76
2021/06/23 09:10:14;;;;;;;17.70;8.20;;;;;17.50;101681.00;;;;10511614;28;20205;-76
2021/06/23 09:15:40;;;;;;;16.00;7.95;;;;;17.80;101680.00;;;;10477440;28;20196;-76
2021/06/23 09:20:42;;;;;;;14.38;7.45;;;;;17.80;101686.00;;;;10496857;28;20994;-76
2021/06/23 09:25:45;;;;;;;12.27;6.55;;;;;17.70;101684.00;;;;10486646;28;20197;-76
2021/06/23 09:30:48;;;;;;;15.30;7.70;;;;;17.70;101696.00;;;;10467524;28;20233;-76
2021/06/23 09:35:56;;;;;;;21.05;7.75;;;;;17.80;101693.00;;;;10485540;28;20220;-76
2021/06/23 09:41:22;;;;;;;15.85;7.38;;;;;17.80;101687.00;;;;10501812;28;20181;-76
2021/06/23 09:46:41;;;;;;;12.98;7.72;;;;;17.70;101695.00;;;;10519202;28;20195;-76
2021/06/23 09:51:55;;;;;;;17.02;7.45;;;;;17.60;101698.00;;;;10485195;28;20220;-76
2021/06/23 09:57:17;;;;;;;13.57;8.00;;;;;17.70;101696.00;;;;10477797;28;20992;-76
2021/06/23 10:02:30;;;;;;;14.13;7.88;;;;;18.00;101690.00;;;;10471630;28;20202;-77
2021/06/23 10:07:51;;;;;;;12.57;9.13;;;;;18.40;101689.00;;;;10512896;28;20189;-76
2021/06/23 10:12:54;;;;;;;16.70;8.45;;;;;18.60;101685.00;;;;10501303;28;20271;-76
2021/06/23 10:17:57;;;;;;;17.25;8.38;;;;;18.80;101682.00;;;;10518589;28;20211;-76
2021/06/23 10:23:02;;;;;;;15.40;8.07;;;;;19.30;101679.00;;;;10455457;28;20201;-76
2021/06/23 10:28:05;;;;;;;10.60;7.65;;;;;19.60;101668.00;;;;10476676;28;20193;-76
2021/06/23 10:33:08;;;;;;;13.57;7.78;;;;;19.40;101670.00;;;;10553575;28;20212;-76
2021/06/23 10:38:10;;;;;;;15.82;8.25;;;;;19.40;101674.00;;;;10495896;28;20197;-76
2021/06/23 10:43:14;;;;;;;12.90;9.07;;;;;19.30;101668.00;;;;10481722;28;20192;-76
2021/06/23 10:48:16;;;;;;;13.40;8.35;;;;;19.50;101669.00;;;;10488587;28;20197;-75
2021/06/23 10:53:35;;;;;;;18.23;8.80;;;;;19.70;101660.00;;;;10486621;28;20197;-76
2021/06/23 10:58:37;;;;;;;12.80;8.38;;;;;19.80;101656.00;;;;10498713;28;20224;-76
2021/06/23 11:04:03;;;;;;;10.85;8.40;;;;;19.60;101670.00;;;;10470656;28;20255;-75
2021/06/23 11:09:26;;;;;;;9.02;8.10;;;;;19.50;101670.00;;;;10524649;28;20695;-76
2021/06/23 11:14:32;;;;;;;15.82;9.50;;;;;19.70;101656.00;;;;10536090;28;20593;-76
2021/06/23 11:19:38;;;;;;;14.90;8.27;;;;;20.10;101663.00;;;;10496843;28;20189;-76
2021/06/23 11:24:40;;;;;;;15.98;8.10;;;;;20.00;101665.00;;;;10488727;28;20204;-76
2021/06/23 11:29:43;;;;;;;13.57;8.05;;;;;19.80;101667.00;;;;10490120;28;20201;-76
2021/06/23 11:34:51;;;;;;;14.13;8.45;;;;;19.90;101666.00;;;;10494323;28;20263;-75
2021/06/23 11:40:07;;;;;;;11.77;8.00;;;;;19.90;101664.00;;;;10534206;28;20255;-75
2021/06/23 11:45:10;;;;;;;12.73;7.80;;;;;19.90;101658.00;;;;10523933;28;20185;-75
2021/06/23 11:50:13;;;;;;;13.68;8.52;;;;;20.30;101654.00;;;;10473613;28;20756;-75
2021/06/23 11:55:23;;;;;;;17.95;8.73;;;;;20.50;101658.00;;;;10483716;28;20657;-76
2021/06/23 12:00:29;;;;;;;11.43;8.55;;;;;20.70;101649.00;;;;10480908;28;20243;-75
2021/06/23 12:05:31;;;;;;;9.85;8.60;;;;;21.20;101648.00;;;;10464383;28;20248;-77
2021/06/23 12:10:34;;;;;;;11.32;8.73;;;;;21.40;101643.00;;;;10496743;28;20216;-76
2021/06/23 12:15:37;;;;;;;11.88;8.55;;;;;21.20;101647.00;;;;10506336;28;20190;-76
2021/06/23 12:20:41;;;;;;;10.98;8.85;;;;;21.20;101639.00;;;;10463640;28;20190;-76
2021/06/23 12:25:50;;;;;;;13.80;9.48;;;;;20.40;101650.00;;;;10477575;28;20288;-76
2021/06/23 12:30:52;;;;;;;13.75;9.95;;;;;19.90;101653.00;;;;10496126;28;20218;-76
2021/06/23 12:35:54;;;;;;;16.13;10.27;;;;;19.90;101650.00;;;;10528231;28;20236;-76
2021/06/23 12:40:56;;;;;;;14.90;10.23;;;;;19.90;101645.00;;;;10469487;28;20197;-76
2021/06/23 12:45:58;;;;;;;11.93;9.77;;;;;20.00;101649.00;;;;10512875;28;20197;-76
2021/06/23 12:51:00;;;;;;;11.38;9.27;;;;;19.70;101654.00;;;;10504310;28;20215;-76
2021/06/23 12:56:03;;;;;;;13.00;9.60;;;;;19.60;101662.00;;;;10461500;28;20300;-75
2021/06/23 13:01:05;;;;;;;13.32;9.18;;;;;19.70;101653.00;;;;10496805;28;20191;-75
2021/06/23 13:06:07;;;;;;;15.18;9.02;;;;;19.70;101657.00;;;;10496497;28;20189;-75
2021/06/23 13:11:09;;;;;;;16.55;9.15;;;;;19.80;101651.00;;;;10507794;28;20231;-75
2021/06/23 13:16:16;;;;;;;11.80;8.82;;;;;19.90;101650.00;;;;10541366;28;20765;-76
2021/06/23 13:21:18;;;;;;;14.00;9.73;;;;;20.10;101649.00;;;;10529889;28;20207;-76
2021/06/23 13:26:22;;;;;;;10.73;8.82;;;;;20.50;101640.00;;;;10523925;28;20204;-76
2021/06/23 13:31:24;;;;;;;12.32;8.43;;;;;21.00;101637.00;;;;10519700;28;20216;-76
2021/06/23 13:36:27;;;;;;;11.15;8.18;;;;;21.20;101641.00;;;;10486287;28;20298;-76
2021/06/23 13:41:28;;;;;;;10.32;9.10;;;;;21.00;101635.00;;;;10527021;28;20646;-76
2021/06/23 13:46:30;;;;;;;12.13;8.45;;;;;20.90;101639.00;;;;10544745;28;20196;-76
2021/06/23 13:51:33;;;;;;;13.88;8.10;;;;;20.90;101635.00;;;;10491812;28;20220;-75
2021/06/23 13:56:35;;;;;;;12.57;8.07;;;;;21.00;101636.00;;;;10476609;28;20189;-76
2021/06/23 14:01:37;;;;;;;13.23;8.27;;;;;21.40;101629.00;;;;10503022;28;20210;-76
2021/06/23 14:06:40;;;;;;;10.85;7.68;;;;;21.80;101624.00;;;;10536619;28;20200;-76
2021/06/23 14:11:42;;;;;;;10.43;7.85;;;;;22.10;101626.00;;;;10505618;28;20701;-76
2021/06/23 14:16:44;;;;;;;12.30;8.15;;;;;22.20;101614.00;;;;10483219;28;20232;-76
2021/06/23 14:21:46;;;;;;;12.05;8.00;;;;;22.50;101622.00;;;;10519685;28;20189;-76
2021/06/23 14:26:53;;;;;;;14.88;7.85;;;;;22.80;101614.00;;;;10516774;28;20561;-75
2021/06/23 14:31:55;;;;;;;10.60;7.22;;;;;22.80;101607.00;;;;10527610;28;20243;-76
2021/06/23 14:36:57;;;;;;;13.18;8.25;;;;;23.00;101608.00;;;;10537114;28;20193;-76
2021/06/23 14:41:59;;;;;;;9.75;7.45;;;;;23.20;101601.00;;;;10534862;28;20203;-76
2021/06/23 14:47:02;;;;;;;14.43;8.55;;;;;23.20;101596.00;;;;10534135;28;20204;-76
2021/06/23 14:52:04;;;;;;;18.60;8.88;;;;;23.50;101594.00;;;;10563477;28;20220;-76
2021/06/23 14:57:08;;;;;;;11.60;8.00;;;;;23.80;101597.00;;;;10506774;28;20194;-76
2021/06/23 15:02:10;;;;;;;10.20;8.02;;;;;23.80;101601.00;;;;10469448;28;20193;-76
2021/06/23 15:07:29;;;;;;;15.93;8.27;;;;;23.60;101593.00;;;;10523061;28;20249;-76
2021/06/23 15:12:31;;;;;;;9.98;8.05;;;;;23.50;101600.00;;;;10526310;28;20197;-76
2021/06/23 15:17:33;;;;;;;15.90;9.10;;;;;22.90;101594.00;;;;10508262;28;20192;-76
2021/06/23 15:22:35;;;;;;;12.15;8.80;;;;;22.20;101594.00;;;;10484388;28;20780;-76
2021/06/23 15:27:37;;;;;;;11.68;8.77;;;;;21.90;101590.00;;;;10482083;28;20254;-76
2021/06/23 15:32:39;;;;;;;15.65;7.97;;;;;21.80;101597.00;;;;10541995;28;20247;-76
2021/06/23 15:37:42;;;;;;;14.27;8.70;;;;;21.70;101592.00;;;;10508815;28;20301;-76
2021/06/23 15:42:44;;;;;;;16.60;9.13;;;;;21.20;101601.00;;;;10522099;28;20199;-76
2021/06/23 15:47:47;;;;;;;16.75;9.18;;;;;20.70;101594.00;;;;10549987;28;20204;-76
2021/06/23 15:52:50;;;;;;;13.73;9.38;;;;;20.50;101589.00;;;;10534345;28;20217;-76
2021/06/23 15:57:52;;;;;;;13.35;9.65;;;;;20.40;101597.00;;;;10485113;28;20636;-76
2021/06/23 16:02:54;;;;;;;15.85;9.20;;;;;20.40;101593.00;;;;10544298;28;20188;-76
2021/06/23 16:07:56;;;;;;;11.75;8.70;;;;;20.50;101585.00;;;;10510631;28;20190;-75
2021/06/23 16:12:59;;;;;;;15.68;9.70;;;;;20.40;101582.00;;;;10483519;28;20216;-76
2021/06/23 16:18:03;;;;;;;13.40;8.45;;;;;20.40;101586.00;;;;10466677;28;20189;-75
2021/06/23 16:23:05;;;;;;;13.52;8.68;;;;;20.40;101582.00;;;;10477118;28;20652;-76
2021/06/23 16:28:07;;;;;;;13.75;9.52;;;;;20.40;101578.00;;;;10507754;28;20659;-76
2021/06/23 16:33:09;;;;;;;18.52;10.55;;;;;20.20;101583.00;;;;10505160;28;20221;-76
2021/06/23 16:38:11;;;;;;;13.48;9.70;;;;;20.20;101582.00;;;;10516195;28;20201;-75
2021/06/23 16:43:13;;;;;;;11.80;10.23;;;;;20.20;101589.00;;;;10499320;28;20680;-75
2021/06/23 16:48:19;;;;;;;11.27;8.73;;;;;20.30;101581.00;;;;10516291;28;20289;-76
2021/06/23 16:53:21;;;;;;;16.88;9.05;;;;;20.40;101581.00;;;;10482169;28;20268;-75
2021/06/23 16:58:25;;;;;;;16.13;9.20;;;;;20.30;101581.00;;;;10449082;28;20652;-75
2021/06/23 17:03:27;;;;;;;17.23;9.45;;;;;20.30;101578.00;;;;10464670;28;20269;-75
2021/06/23 17:08:29;;;;;;;15.95;9.57;;;;;20.00;101582.00;;;;10465483;28;20194;-76
2021/06/23 17:13:32;;;;;;;15.10;9.38;;;;;19.80;101572.00;;;;10499603;28;20205;-76
2021/06/23 17:18:34;;;;;;;16.85;9.38;;;;;19.60;101581.00;;;;10481568;28;20204;-75
2021/06/23 17:23:36;;;;;;;11.93;9.68;;;;;19.40;101567.00;;;;10480384;28;20200;-75
2021/06/23 17:28:38;;;;;;;13.35;9.55;;;;;19.40;101571.00;;;;10489245;28;20200;-75
2021/06/23 17:33:40;;;;;;;13.23;9.32;;;;;19.30;101578.00;;;;10540072;28;20216;-75
2021/06/23 17:38:43;;;;;;;13.90;10.40;;;;;19.20;101568.00;;;;10522135;28;20602;-76
2021/06/23 17:43:46;;;;;;;17.85;10.13;;;;;19.10;101575.00;;;;10506238;28;20203;-75
2021/06/23 17:48:48;;;;;;;15.05;10.35;;;;;19.00;101586.00;;;;10522580;28;20193;-75
2021/06/23 17:53:51;;;;;;;13.23;10.38;;;;;18.70;101591.00;;;;10522027;28;20216;-75
2021/06/23 17:58:53;;;;;;;13.52;10.75;;;;;18.40;101589.00;;;;10485520;28;20193;-75
2021/06/23 18:03:55;;;;;;;12.95;10.05;;;;;18.20;101585.00;;;;10463167;28;20604;-75
2021/06/23 18:08:57;;;;;;;19.48;11.32;;;;;18.00;101592.00;;;;10480131;28;20197;-76
2021/06/23 18:13:59;;;;;;;15.50;10.90;;;;;17.90;101601.00;;;;10480227;28;20209;-76
2021/06/23 18:19:01;;;;;;;13.25;9.85;;;;;17.70;101601.00;;;;10474049;28;20197;-75
2021/06/23 18:24:04;;;;;;;11.52;10.35;;;;;17.60;101607.00;;;;10498453;28;20188;-75
2021/06/23 18:29:07;;;;;;;14.25;11.52;;;;;17.50;101621.00;;;;10495789;28;20204;-75
2021/06/23 18:34:09;;;;;;;17.88;11.45;;;;;17.30;101616.00;;;;10495500;28;20680;-76
2021/06/23 18:39:11;;;;;;;17.40;10.82;;;;;17.30;101621.00;;;;10462228;28;20649;-75
2021/06/23 18:44:13;;;;;;;17.58;10.45;;;;;17.20;101619.00;;;;10479592;28;20213;-75
2021/06/23 18:49:15;;;;;;;15.55;10.45;;;;;17.10;101623.00;;;;10497147;28;20190;-75
2021/06/23 18:54:17;;;;;;;15.98;10.25;;;;;17.10;101626.00;;;;10479173;28;20189;-75
2021/06/23 18:59:19;;;;;;;18.23;11.73;;;;;17.00;101627.00;;;;10462299;28;20590;-75
2021/06/23 19:04:22;;;;;;;14.93;10.93;;;;;16.90;101629.00;;;;10498674;28;20243;-75
2021/06/23 19:09:23;;;;;;;14.95;10.30;;;;;16.80;101630.00;;;;10483229;28;20201;-75
2021/06/23 19:14:25;;;;;;;15.90;10.93;;;;;16.80;101633.00;;;;10462371;28;20205;-75
2021/06/23 19:19:27;;;;;;;20.40;11.03;;;;;16.70;101624.00;;;;10461446;28;20198;-75
2021/06/23 19:24:29;;;;;;;14.93;11.03;;;;;16.60;101622.00;;;;10502901;28;20651;-75
2021/06/23 19:29:31;;;;;;;18.60;11.13;;;;;16.60;101629.00;;;;10527251;28;20238;-75
2021/06/23 19:34:33;;;;;;;14.17;10.33;;;;;16.50;101629.00;;;;10510331;28;20213;-75
2021/06/23 19:39:35;;;;;;;17.40;10.98;;;;;16.40;101617.00;;;;10509985;28;20200;-75
2021/06/23 19:44:37;;;;;;;16.03;10.80;;;;;16.40;101626.00;;;;10490893;28;20682;-75
2021/06/23 19:49:40;;;;;;;15.07;11.23;;;;;16.30;101625.00;;;;10468339;28;20221;-75
2021/06/23 19:54:42;;;;;;;15.60;11.50;;;;;16.20;101629.00;;;;10508972;28;20258;-75
2021/06/23 19:59:44;;;;;;;14.77;11.90;;;;;16.10;101631.00;;;;10543649;28;20835;-75
2021/06/23 20:04:46;;;;;;;14.73;11.73;;;;;16.10;101645.00;;;;10484076;28;20561;-75
2021/06/23 20:09:48;;;;;;;16.23;10.63;;;;;16.00;101636.00;;;;10467815;28;20291;-75
2021/06/23 20:14:50;;;;;;;20.92;11.63;;;;;16.00;101641.00;;;;10484155;28;20197;-75
2021/06/23 20:20:14;;;;;;;13.40;9.20;;;;;15.90;101637.00;;;;10453561;28;20526;-75
2021/06/23 20:25:17;;;;;;;14.77;7.77;;;;;15.90;101635.00;;;;10495209;28;20215;-75
2021/06/23 20:30:20;;;;;;;12.83;7.90;;;;;15.80;101638.00;;;;10491022;28;20243;-75
2021/06/23 20:35:23;;;;;;;13.27;7.47;;;;;15.70;101639.00;;;;10506730;28;20274;-75
2021/06/23 20:40:25;;;;;;;20.70;8.13;;;;;15.70;101647.00;;;;10507670;28;20235;-74
2021/06/23 20:45:28;;;;;;;11.93;7.20;;;;;15.60;101645.00;;;;10542774;28;20198;-75
2021/06/23 20:50:30;;;;;;;12.13;6.80;;;;;15.60;101651.00;;;;10523911;28;20304;-75
2021/06/23 20:55:34;;;;;;;13.00;8.23;;;;;15.60;101655.00;;;;10493457;28;20206;-75
2021/06/23 21:00:39;;;;;;;12.40;7.50;;;;;15.60;101651.00;;;;10465305;28;20390;-75
2021/06/23 21:05:41;;;;;;;11.70;7.47;;;;;15.50;101649.00;;;;10449130;28;20225;-75
2021/06/23 21:10:50;;;;;;;13.43;7.77;;;;;15.50;101636.00;;;;10481732;28;20216;-75
2021/06/23 21:15:54;;;;;;;15.17;8.60;;;;;15.50;101633.00;;;;10499568;28;20194;-75
2021/06/23 21:20:56;;;;;;;15.87;8.07;;;;;15.40;101635.00;;;;10481548;28;20194;-75
2021/06/23 21:26:12;;;;;;;14.73;7.90;;;;;15.40;101628.00;;;;10464682;28;20201;-75
2021/06/23 21:31:22;;;;;;;12.50;8.27;;;;;15.40;101633.00;;;;10481375;28;20216;-75
2021/06/23 21:36:33;;;;;;;14.63;8.40;;;;;15.40;101633.00;;;;10498955;28;20205;-75
2021/06/23 21:41:42;;;;;;;10.43;8.60;;;;;15.40;101637.00;;;;10464297;28;20196;-75
2021/06/23 21:46:48;;;;;;;19.13;9.20;;;;;15.40;101648.00;;;;10447280;28;20668;-75
2021/06/23 21:51:59;;;;;;;11.57;8.10;;;;;15.40;101649.00;;;;10480443;28;20233;-75
2021/06/23 21:57:03;;;;;;;11.80;8.03;;;;;15.40;101637.00;;;;10479895;28;20188;-76
2021/06/23 22:02:14;;;;;;;13.47;9.00;;;;;15.40;101637.00;;;;10480027;28;20645;-75
2021/06/23 22:07:17;;;;;;;12.43;9.03;;;;;15.40;101645.00;;;;10446048;28;20200;-75
2021/06/23 22:12:31;;;;;;;10.03;8.00;;;;;15.40;101638.00;;;;10463409;28;20538;-75
2021/06/23 22:17:35;;;;;;;13.97;8.00;;;;;15.40;101634.00;;;;10471237;28;20198;-75
2021/06/23 22:22:41;;;;;;;13.23;7.90;;;;;15.40;101633.00;;;;10497711;28;20545;-75
2021/06/23 22:27:50;;;;;;;12.63;7.53;;;;;15.30;101628.00;;;;10446109;28;20205;-75
2021/06/23 22:32:59;;;;;;;10.47;7.20;;;;;15.30;101634.00;;;;10482942;28;20232;-75
2021/06/23 22:38:03;;;;;;;10.03;7.47;;;;;15.30;101635.00;;;;10520547;28;20800;-75
2021/06/23 22:48:13;;;;;;;10.53;7.07;;;;;15.30;101648.00;;;;10520293;28;20189;-75
2021/06/23 22:53:19;;;;;;;9.57;6.77;;;;;15.30;101646.00;;;;10502890;28;20699;-75
2021/06/23 22:58:21;;;;;;;11.33;7.13;;;;;15.30;101651.00;;;;10488847;28;20204;-75
2021/06/23 23:03:24;;;;;;;8.43;6.83;;;;;15.30;101650.00;;;;10511085;28;20184;-75
2021/06/23 23:08:25;;;;;;;10.50;7.40;;;;;15.30;101661.00;;;;10527825;28;20195;-75
2021/06/23 23:13:29;;;;;;;8.37;7.00;;;;;15.30;101669.00;;;;10546200;28;20214;-75
2021/06/23 23:18:32;;;;;;;11.37;7.33;;;;;15.30;101665.00;;;;10527352;28;20196;-75
2021/06/23 23:23:34;;;;;;;11.00;7.00;;;;;15.30;101645.00;;;;10513559;28;20280;-75
2021/06/23 23:28:36;;;;;;;12.93;6.83;;;;;15.20;101659.00;;;;10468493;28;20227;-75
2021/06/23 23:33:38;;;;;;;12.57;7.53;;;;;15.20;101658.00;;;;10498126;28;20948;-77
2021/06/23 23:38:40;;;;;;;13.23;8.10;;;;;15.20;101656.00;;;;10510246;28;20197;-75
2021/06/23 23:43:42;;;;;;;8.17;7.20;;;;;15.10;101640.00;;;;10493078;28;20181;-75
2021/06/23 23:48:44;;;;;;;8.07;6.70;;;;;15.10;101639.00;;;;10510524;28;20197;-75
2021/06/23 23:53:46;;;;;;;10.13;7.33;;;;;15.10;101627.00;;;;10525625;28;20687;-76
2021/06/23 23:58:48;;;;;;;10.03;7.00;;;;;15.00;101641.00;;;;10509709;28;20189;-76
